createdAt,value
2023-03-29T00:01:35.361Z,13.10
2023-03-29T00:04:02.910Z,13.10
2023-03-29T00:06:32.961Z,13.10
2023-03-29T00:09:01.958Z,13.10
2023-03-29T00:11:30.068Z,13.20
2023-03-29T00:13:58.085Z,13.20
2023-03-29T00:16:27.591Z,13.20
2023-03-29T00:18:55.642Z,13.30
2023-03-29T00:21:23.683Z,13.30
2023-03-29T00:23:51.688Z,13.20
2023-03-29T00:26:19.688Z,13.20
2023-03-29T00:28:47.701Z,13.10
2023-03-29T00:31:17.074Z,13.10
2023-03-29T00:33:47.097Z,13.20
2023-03-29T00:36:16.146Z,13.20
2023-03-29T00:38:44.164Z,13.20
2023-03-29T00:41:12.424Z,13.20
2023-03-29T00:43:53.739Z,13.20
2023-03-29T00:46:21.785Z,13.30
2023-03-29T00:48:52.075Z,13.30
2023-03-29T00:51:20.267Z,13.20
2023-03-29T00:53:49.451Z,13.20
2023-03-29T00:56:19.642Z,13.10
2023-03-29T00:58:50.041Z,13.10
2023-03-29T01:01:20.358Z,13.20
2023-03-29T01:03:54.498Z,13.10
2023-03-29T01:06:24.806Z,13.20
2023-03-29T01:08:54.520Z,13.20
2023-03-29T01:11:23.692Z,13.10
2023-03-29T01:13:52.884Z,13.20
2023-03-29T01:16:22.189Z,13.20
2023-03-29T01:18:52.250Z,13.20
2023-03-29T01:21:23.580Z,13.20
2023-03-29T01:24:31.808Z,13.10
2023-03-29T01:27:02.926Z,13.10
2023-03-29T01:29:33.550Z,13.20
2023-03-29T01:32:02.739Z,13.10
2023-03-29T01:34:34.351Z,13.20
2023-03-29T01:37:05.890Z,13.20
2023-03-29T01:39:35.036Z,13.20
2023-03-29T01:42:15.664Z,13.20
2023-03-29T01:44:48.782Z,13.20
2023-03-29T01:47:20.554Z,13.20
2023-03-29T01:49:52.315Z,13.20
2023-03-29T01:52:21.589Z,13.10
2023-03-29T01:54:51.975Z,13.10
2023-03-29T01:57:20.039Z,13.00
2023-03-29T01:59:49.532Z,13.00
2023-03-29T02:02:17.611Z,13.00
2023-03-29T02:04:50.125Z,13.00
2023-03-29T02:07:18.708Z,13.00
2023-03-29T02:09:47.097Z,13.10
2023-03-29T02:12:15.121Z,13.10
2023-03-29T02:14:43.289Z,13.10
2023-03-29T02:17:18.375Z,13.10
2023-03-29T02:19:50.120Z,13.10
2023-03-29T02:22:20.851Z,13.10
2023-03-29T02:24:48.910Z,13.10
2023-03-29T02:27:17.180Z,13.10
2023-03-29T02:29:46.892Z,13.00
2023-03-29T02:32:18.555Z,13.10
2023-03-29T02:34:47.730Z,13.10
2023-03-29T02:37:18.886Z,13.10
2023-03-29T02:39:48.583Z,13.10
2023-03-29T02:42:17.629Z,13.10
2023-03-29T02:44:45.655Z,13.20
2023-03-29T02:47:15.248Z,13.10
2023-03-29T02:49:44.685Z,13.20
2023-03-29T02:52:16.090Z,13.10
2023-03-29T02:54:45.397Z,13.10
2023-03-29T02:57:13.577Z,13.10
2023-03-29T02:59:44.087Z,13.10
2023-03-29T03:02:13.779Z,13.10
2023-03-29T03:04:41.914Z,13.10
2023-03-29T03:07:11.332Z,13.10
2023-03-29T03:09:39.851Z,13.10
2023-03-29T03:12:08.571Z,13.10
2023-03-29T03:14:36.607Z,13.10
2023-03-29T03:17:04.988Z,13.10
2023-03-29T03:19:33.107Z,13.10
2023-03-29T03:22:01.124Z,13.10
2023-03-29T03:24:32.558Z,13.00
2023-03-29T03:27:00.635Z,13.00
2023-03-29T03:29:29.145Z,13.00
2023-03-29T03:31:57.195Z,13.10
2023-03-29T03:34:26.331Z,13.10
2023-03-29T03:36:55.534Z,13.10
2023-03-29T03:39:23.885Z,13.10
2023-03-29T03:41:53.312Z,13.10
2023-03-29T03:44:21.516Z,13.20
2023-03-29T03:46:49.525Z,13.10
2023-03-29T03:49:17.644Z,13.10
2023-03-29T03:51:45.693Z,13.00
2023-03-29T03:54:13.729Z,13.00
2023-03-29T03:56:41.762Z,13.00
2023-03-29T03:59:11.180Z,12.90
2023-03-29T04:01:43.445Z,12.90
2023-03-29T04:04:11.602Z,12.90
2023-03-29T04:06:41.762Z,13.00
2023-03-29T04:09:11.715Z,13.00
2023-03-29T04:11:39.727Z,13.00
2023-03-29T04:14:07.764Z,13.00
2023-03-29T04:16:37.135Z,13.00
2023-03-29T04:19:05.182Z,13.00
2023-03-29T04:21:34.483Z,13.00
2023-03-29T04:24:02.498Z,13.00
2023-03-29T04:26:30.493Z,13.00
2023-03-29T04:28:58.566Z,13.00
2023-03-29T04:31:26.840Z,13.00
2023-03-29T04:33:57.779Z,13.00
2023-03-29T04:36:27.847Z,13.00
2023-03-29T04:38:56.025Z,13.00
2023-03-29T04:41:24.894Z,13.00
2023-03-29T04:43:53.718Z,13.00
2023-03-29T04:46:21.981Z,13.10
2023-03-29T04:48:50.078Z,13.00
2023-03-29T04:51:20.188Z,13.10
2023-03-29T04:53:48.232Z,13.00
2023-03-29T04:56:16.435Z,13.00
2023-03-29T04:58:45.391Z,13.00
2023-03-29T05:01:13.489Z,13.00
2023-03-29T05:03:42.192Z,13.00
2023-03-29T05:06:12.149Z,13.00
2023-03-29T05:08:41.573Z,13.10
2023-03-29T05:11:10.320Z,13.10
2023-03-29T05:13:38.662Z,13.00
2023-03-29T05:16:07.872Z,13.10
2023-03-29T05:18:36.005Z,13.00
2023-03-29T05:21:04.340Z,13.00
2023-03-29T05:23:32.819Z,13.00
2023-03-29T05:26:02.693Z,13.00
2023-03-29T05:28:30.908Z,13.00
2023-03-29T05:31:02.466Z,13.00
2023-03-29T05:33:30.843Z,13.00
2023-03-29T05:36:02.131Z,13.00
2023-03-29T05:38:32.884Z,13.00
2023-03-29T05:41:02.505Z,12.90
2023-03-29T05:43:31.009Z,13.00
2023-03-29T05:45:59.072Z,13.00
2023-03-29T05:48:27.330Z,13.00
2023-03-29T05:50:56.372Z,13.00
2023-03-29T05:53:26.320Z,12.90
2023-03-29T05:55:54.353Z,12.90
2023-03-29T05:58:26.545Z,12.80
2023-03-29T06:00:54.704Z,12.80
2023-03-29T06:03:25.380Z,12.90
2023-03-29T06:05:57.459Z,12.90
2023-03-29T06:08:26.148Z,12.90
2023-03-29T06:10:59.939Z,13.00
2023-03-29T06:13:30.346Z,12.90
2023-03-29T06:15:58.714Z,12.90
2023-03-29T06:18:26.752Z,13.00
2023-03-29T06:20:54.809Z,13.00
2023-03-29T06:23:23.144Z,13.00
2023-03-29T06:25:51.690Z,13.00
2023-03-29T06:28:20.059Z,13.00
2023-03-29T06:30:49.683Z,13.00
2023-03-29T06:33:18.858Z,13.00
2023-03-29T06:35:47.784Z,13.00
2023-03-29T06:38:17.594Z,13.00
2023-03-29T06:40:45.679Z,13.00
2023-03-29T06:43:14.135Z,13.10
2023-03-29T06:45:42.210Z,13.00
2023-03-29T06:48:12.296Z,13.00
2023-03-29T06:50:40.770Z,13.10
2023-03-29T06:53:09.253Z,13.00
2023-03-29T06:55:40.317Z,13.00
2023-03-29T06:58:09.548Z,13.00
2023-03-29T07:00:39.472Z,13.00
2023-03-29T07:03:23.751Z,13.10
2023-03-29T07:06:03.797Z,13.10
2023-03-29T07:08:32.619Z,13.20
2023-03-29T07:11:01.409Z,13.20
2023-03-29T07:13:30.579Z,13.20
2023-03-29T07:15:58.688Z,13.10
2023-03-29T07:18:28.267Z,13.10
2023-03-29T07:20:57.377Z,13.10
2023-03-29T07:23:25.552Z,13.20
2023-03-29T07:25:54.159Z,13.10
2023-03-29T07:28:22.202Z,13.10
2023-03-29T07:30:51.495Z,13.10
2023-03-29T07:33:20.297Z,13.10
2023-03-29T07:35:49.765Z,13.20
2023-03-29T07:38:18.603Z,13.20
2023-03-29T07:40:46.648Z,13.10
2023-03-29T07:43:14.781Z,13.10
2023-03-29T07:45:44.812Z,13.10
2023-03-29T07:48:13.163Z,13.20
2023-03-29T07:50:42.057Z,13.20
2023-03-29T07:53:11.584Z,13.20
2023-03-29T07:55:47.158Z,13.20
2023-03-29T07:58:15.796Z,13.10
2023-03-29T08:00:44.210Z,13.10
2023-03-29T08:03:13.219Z,13.10
2023-03-29T08:05:42.149Z,13.10
2023-03-29T08:08:11.678Z,13.20
2023-03-29T08:10:40.170Z,13.20
2023-03-29T08:13:09.242Z,13.20
2023-03-29T08:15:38.067Z,13.20
2023-03-29T08:18:06.326Z,13.30
2023-03-29T08:20:34.546Z,13.20
2023-03-29T08:23:02.816Z,13.30
2023-03-29T08:25:32.372Z,13.30
2023-03-29T08:28:00.607Z,13.30
2023-03-29T08:30:28.795Z,13.30
2023-03-29T08:32:57.078Z,13.30
2023-03-29T08:35:25.187Z,13.30
2023-03-29T08:37:53.317Z,13.30
2023-03-29T08:40:22.630Z,13.30
2023-03-29T08:43:02.059Z,13.30
2023-03-29T08:45:31.771Z,13.30
2023-03-29T08:48:02.412Z,13.30
2023-03-29T08:50:34.116Z,13.40
2023-03-29T08:53:03.606Z,13.40
2023-03-29T08:55:33.704Z,13.40
2023-03-29T08:58:03.425Z,13.40
2023-03-29T09:00:36.920Z,13.40
2023-03-29T09:03:11.482Z,13.40
2023-03-29T09:05:41.453Z,13.40
2023-03-29T09:08:13.385Z,13.40
2023-03-29T09:10:44.152Z,13.30
2023-03-29T09:13:26.079Z,13.40
2023-03-29T09:15:56.255Z,13.40
2023-03-29T09:18:27.652Z,13.60
2023-03-29T09:20:58.502Z,13.60
2023-03-29T09:23:40.107Z,13.60
2023-03-29T09:26:09.818Z,13.60
2023-03-29T09:28:40.203Z,13.50
2023-03-29T09:31:13.319Z,13.50
2023-03-29T09:33:43.807Z,13.50
2023-03-29T09:36:12.509Z,13.50
2023-03-29T09:38:42.703Z,13.50
2023-03-29T09:41:19.104Z,13.60
2023-03-29T09:43:48.801Z,13.60
2023-03-29T09:46:18.834Z,13.70
2023-03-29T09:48:47.387Z,13.70
2023-03-29T09:51:18.743Z,13.80
2023-03-29T09:53:47.707Z,13.70
2023-03-29T09:56:16.984Z,13.70
2023-03-29T09:58:52.167Z,13.50
2023-03-29T10:01:20.568Z,13.60
2023-03-29T10:03:52.545Z,13.60
2023-03-29T10:06:25.679Z,13.60
2023-03-29T10:08:56.777Z,13.60
2023-03-29T10:11:51.932Z,13.70
2023-03-29T10:14:24.733Z,13.60
2023-03-29T10:16:56.629Z,13.50
2023-03-29T10:22:20.072Z,13.70
2023-03-29T10:24:55.109Z,13.80
2023-03-29T10:27:30.657Z,13.80
2023-03-29T10:30:04.262Z,13.80
2023-03-29T10:32:36.902Z,13.80
2023-03-29T10:35:37.897Z,13.80
2023-03-29T10:38:21.588Z,13.70
2023-03-29T10:40:57.044Z,13.70
2023-03-29T10:43:51.350Z,13.80
2023-03-29T10:46:27.304Z,13.80
2023-03-29T10:49:00.890Z,13.80
2023-03-29T10:51:44.528Z,13.90
2023-03-29T10:54:17.337Z,13.90
2023-03-29T10:56:55.676Z,13.80
2023-03-29T10:59:30.855Z,13.90
2023-03-29T11:02:19.521Z,13.80
2023-03-29T11:04:51.348Z,13.70
2023-03-29T11:07:34.064Z,13.80
2023-03-29T11:10:33.283Z,13.90
2023-03-29T11:13:08.653Z,13.60
2023-03-29T11:16:18.326Z,13.90
2023-03-29T11:18:55.469Z,14.00
2023-03-29T11:24:55.919Z,14.00
2023-03-29T11:27:39.711Z,13.90
2023-03-29T11:30:17.784Z,14.00
2023-03-29T11:32:51.370Z,14.00
2023-03-29T11:35:57.890Z,13.90
2023-03-29T11:38:32.672Z,14.00
2023-03-29T11:41:06.393Z,14.00
2023-03-29T11:43:38.350Z,14.00
2023-03-29T11:46:11.488Z,14.10
2023-03-29T11:48:43.983Z,14.10
2023-03-29T11:51:15.856Z,14.20
2023-03-29T11:54:01.176Z,14.10
2023-03-29T11:56:31.784Z,14.10
2023-03-29T12:02:59.894Z,14.00
2023-03-29T12:12:14.789Z,14.00
2023-03-29T12:18:04.025Z,14.10
2023-03-29T12:20:33.448Z,14.10
2023-03-29T12:23:01.769Z,14.20
2023-03-29T12:25:32.347Z,14.30
2023-03-29T12:28:10.578Z,14.20
2023-03-29T12:30:54.631Z,14.20
2023-03-29T12:33:43.328Z,14.20
2023-03-29T12:36:17.711Z,14.20
2023-03-29T12:38:46.126Z,14.20
2023-03-29T12:41:19.014Z,14.30
2023-03-29T12:43:47.237Z,14.20
2023-03-29T12:46:20.629Z,14.20
2023-03-29T12:48:50.653Z,14.20
2023-03-29T12:51:19.547Z,14.30
2023-03-29T12:54:20.128Z,14.30
2023-03-29T12:57:24.939Z,14.30
2023-03-29T12:59:53.497Z,14.30
2023-03-29T13:02:36.497Z,14.20
2023-03-29T13:05:07.752Z,14.20
2023-03-29T13:07:47.716Z,14.20
2023-03-29T13:10:37.296Z,14.30
2023-03-29T13:13:19.941Z,14.30
2023-03-29T13:15:55.765Z,14.30
2023-03-29T13:18:34.019Z,14.40
2023-03-29T13:21:05.907Z,14.40
2023-03-29T13:23:41.127Z,14.30
2023-03-29T13:26:22.158Z,14.30
2023-03-29T13:29:03.464Z,14.30
2023-03-29T13:31:34.888Z,14.30
2023-03-29T13:34:05.565Z,14.30
2023-03-29T13:36:41.658Z,14.30
2023-03-29T13:39:16.288Z,14.30
2023-03-29T13:41:48.820Z,14.30
2023-03-29T13:44:27.942Z,14.30
2023-03-29T13:47:04.974Z,14.40
2023-03-29T13:49:33.544Z,14.40
2023-03-29T13:52:07.412Z,14.40
2023-03-29T13:54:37.396Z,14.40
2023-03-29T13:57:09.904Z,14.30
2023-03-29T13:59:55.792Z,14.30
2023-03-29T14:02:30.540Z,14.30
2023-03-29T14:04:59.935Z,14.20
2023-03-29T14:07:34.730Z,14.20
2023-03-29T14:10:02.859Z,14.20
2023-03-29T14:12:33.738Z,14.30
2023-03-29T14:15:03.797Z,14.30
2023-03-29T14:17:31.970Z,14.30
2023-03-29T14:20:00.671Z,14.30
2023-03-29T14:22:33.041Z,14.40
2023-03-29T14:25:02.925Z,14.40
2023-03-29T14:27:32.041Z,14.40
2023-03-29T14:30:00.909Z,14.30
2023-03-29T14:32:31.352Z,14.30
2023-03-29T14:34:59.444Z,14.30
2023-03-29T14:37:28.294Z,14.30
2023-03-29T14:39:56.536Z,14.30
2023-03-29T14:42:26.732Z,14.30
2023-03-29T14:44:58.832Z,14.30
2023-03-29T14:47:28.403Z,14.30
2023-03-29T14:50:00.658Z,14.40
2023-03-29T14:52:28.952Z,14.40
2023-03-29T14:54:57.137Z,14.40
2023-03-29T14:57:26.730Z,14.40
2023-03-29T15:00:01.802Z,14.40
2023-03-29T15:02:30.730Z,14.30
2023-03-29T15:05:04.769Z,14.30
2023-03-29T15:07:33.521Z,14.30
2023-03-29T15:10:02.310Z,14.40
2023-03-29T15:12:30.601Z,14.30
2023-03-29T15:14:58.880Z,14.30
2023-03-29T15:17:47.002Z,14.40
2023-03-29T15:20:23.328Z,14.40
2023-03-29T15:22:56.836Z,14.40
2023-03-29T15:25:27.540Z,14.40
2023-03-29T15:27:57.188Z,14.30
2023-03-29T15:30:34.821Z,14.30
2023-03-29T15:33:16.795Z,14.30
2023-03-29T15:35:49.120Z,14.30
2023-03-29T15:38:17.718Z,14.30
2023-03-29T15:40:46.141Z,14.30
2023-03-29T15:43:14.248Z,14.30
2023-03-29T15:45:42.567Z,14.30
2023-03-29T15:48:15.655Z,14.30
2023-03-29T15:50:46.829Z,14.40
2023-03-29T15:53:17.563Z,14.40
2023-03-29T15:55:47.217Z,14.30
2023-03-29T15:58:16.030Z,14.20
2023-03-29T16:00:44.684Z,14.20
2023-03-29T16:03:14.912Z,14.30
2023-03-29T16:05:47.774Z,14.20
2023-03-29T16:08:16.018Z,14.20
2023-03-29T16:10:44.856Z,14.20
2023-03-29T16:13:13.821Z,14.20
2023-03-29T16:15:42.362Z,14.20
2023-03-29T16:18:10.669Z,14.20
2023-03-29T16:20:39.763Z,14.20
2023-03-29T16:23:09.823Z,14.30
2023-03-29T16:25:39.928Z,14.30
2023-03-29T16:28:10.352Z,14.20
2023-03-29T16:30:39.900Z,14.30
2023-03-29T16:33:08.822Z,14.30
2023-03-29T16:35:37.941Z,14.30
2023-03-29T16:38:06.469Z,14.20
2023-03-29T16:40:36.067Z,14.20
2023-03-29T16:43:04.659Z,14.20
2023-03-29T16:45:36.370Z,14.20
2023-03-29T16:48:05.153Z,14.20
2023-03-29T16:50:33.335Z,14.30
2023-03-29T16:53:02.222Z,14.30
2023-03-29T16:55:30.377Z,14.30
2023-03-29T16:57:59.833Z,14.20
2023-03-29T17:00:27.949Z,14.20
2023-03-29T17:02:56.576Z,14.20
2023-03-29T17:05:25.613Z,14.20
2023-03-29T17:07:55.815Z,14.20
2023-03-29T17:10:24.704Z,14.20
2023-03-29T17:12:56.210Z,14.10
2023-03-29T17:15:27.135Z,14.10
2023-03-29T17:17:56.076Z,14.20
2023-03-29T17:20:25.177Z,14.20
2023-03-29T17:22:59.016Z,14.20
2023-03-29T17:25:29.249Z,14.20
2023-03-29T17:27:58.790Z,14.20
2023-03-29T17:30:33.096Z,14.10
2023-03-29T17:33:02.648Z,14.10
2023-03-29T17:35:38.094Z,14.10
2023-03-29T17:38:06.872Z,14.10
2023-03-29T17:40:36.707Z,14.10
2023-03-29T17:43:05.866Z,14.20
2023-03-29T17:45:40.072Z,14.20
2023-03-29T17:48:09.811Z,14.20
2023-03-29T17:50:39.058Z,14.20
2023-03-29T17:53:08.390Z,14.10
2023-03-29T17:55:37.248Z,14.10
2023-03-29T17:58:06.733Z,14.10
2023-03-29T18:00:44.532Z,14.00
2023-03-29T18:03:13.456Z,14.00
2023-03-29T18:05:42.152Z,14.10
2023-03-29T18:08:10.893Z,14.00
2023-03-29T18:10:40.108Z,14.00
2023-03-29T18:13:11.486Z,14.00
2023-03-29T18:15:41.404Z,14.10
2023-03-29T18:18:09.944Z,14.00
2023-03-29T18:20:39.858Z,14.00
2023-03-29T18:23:09.458Z,14.10
2023-03-29T18:25:38.801Z,14.10
2023-03-29T18:28:07.218Z,14.10
2023-03-29T18:30:36.351Z,14.00
2023-03-29T18:33:06.249Z,14.00
2023-03-29T18:35:34.843Z,14.00
2023-03-29T18:38:04.360Z,14.00
2023-03-29T18:40:34.851Z,14.00
2023-03-29T18:43:03.445Z,14.00
2023-03-29T18:45:32.013Z,14.00
2023-03-29T18:48:02.251Z,13.90
2023-03-29T18:50:32.707Z,14.00
2023-03-29T18:53:02.410Z,14.00
2023-03-29T18:55:31.529Z,14.00
2023-03-29T18:58:00.384Z,14.00
2023-03-29T19:00:28.732Z,14.00
2023-03-29T19:02:57.627Z,14.00
2023-03-29T19:05:26.456Z,14.00
2023-03-29T19:07:56.571Z,14.00
2023-03-29T19:10:25.881Z,14.00
2023-03-29T19:12:54.368Z,14.00
2023-03-29T19:15:22.899Z,14.00
2023-03-29T19:17:51.178Z,14.00
2023-03-29T19:20:21.178Z,14.00
2023-03-29T19:22:49.272Z,14.00
2023-03-29T19:25:19.099Z,14.00
2023-03-29T19:27:47.816Z,14.00
2023-03-29T19:30:17.016Z,14.00
2023-03-29T19:32:45.215Z,14.00
2023-03-29T19:35:14.125Z,13.90
2023-03-29T19:37:42.299Z,14.00
2023-03-29T19:40:11.369Z,13.90
2023-03-29T19:42:41.555Z,13.90
2023-03-29T19:45:10.814Z,13.90
2023-03-29T19:47:39.033Z,14.00
2023-03-29T19:50:08.436Z,14.00
2023-03-29T19:52:36.546Z,14.00
2023-03-29T19:55:06.469Z,13.90
2023-03-29T19:57:34.600Z,13.80
2023-03-29T20:00:08.053Z,13.80
2023-03-29T20:02:36.536Z,13.80
2023-03-29T20:05:05.193Z,13.90
2023-03-29T20:07:33.193Z,13.80
2023-03-29T20:10:01.625Z,13.90
2023-03-29T20:13:40.556Z,13.90
2023-03-29T20:16:11.460Z,13.90
2023-03-29T20:18:39.717Z,13.90
2023-03-29T20:21:08.005Z,13.90
2023-03-29T20:23:36.367Z,13.90
2023-03-29T20:26:04.437Z,13.90
2023-03-29T20:28:32.502Z,13.90
2023-03-29T20:31:03.824Z,13.90
2023-03-29T20:33:33.542Z,13.80
2023-03-29T20:36:01.677Z,13.90
2023-03-29T20:38:29.853Z,13.90
2023-03-29T20:40:58.016Z,13.90
2023-03-29T20:43:26.142Z,13.90
2023-03-29T20:45:55.432Z,13.90
2023-03-29T20:48:24.830Z,13.90
2023-03-29T20:50:54.266Z,13.90
2023-03-29T20:53:22.373Z,13.90
2023-03-29T20:55:50.425Z,13.90
2023-03-29T20:58:19.375Z,13.90
2023-03-29T21:00:48.444Z,13.90
2023-03-29T21:03:17.002Z,13.90
2023-03-29T21:05:45.113Z,13.80
2023-03-29T21:08:17.553Z,13.80
2023-03-29T21:10:47.811Z,13.90
2023-03-29T21:13:15.811Z,13.90
2023-03-29T21:15:44.242Z,13.90
2023-03-29T21:18:12.334Z,13.90
2023-03-29T21:20:40.400Z,13.90
2023-03-29T21:23:08.657Z,13.90
2023-03-29T21:25:38.342Z,13.90
2023-03-29T21:28:10.431Z,13.90
2023-03-29T21:30:39.137Z,13.80
2023-03-29T21:33:07.232Z,13.80
2023-03-29T21:35:35.679Z,13.90
2023-03-29T21:38:03.730Z,13.90
2023-03-29T21:40:31.752Z,13.90
2023-03-29T21:43:01.509Z,13.90
2023-03-29T21:45:29.586Z,13.90
2023-03-29T21:47:57.673Z,13.90
2023-03-29T21:50:25.742Z,13.90
2023-03-29T21:52:53.729Z,13.80
2023-03-29T21:55:21.811Z,13.80
2023-03-29T21:57:49.908Z,13.80
2023-03-29T22:00:19.615Z,13.70
2023-03-29T22:02:47.904Z,13.80
2023-03-29T22:05:16.321Z,13.80
2023-03-29T22:07:44.381Z,13.80
2023-03-29T22:10:13.261Z,13.70
2023-03-29T22:12:41.614Z,13.80
2023-03-29T22:15:11.808Z,13.70
2023-03-29T22:17:42.867Z,13.70
2023-03-29T22:20:13.914Z,13.80
2023-03-29T22:22:45.388Z,13.80
2023-03-29T22:25:13.581Z,13.80
2023-03-29T22:27:41.572Z,13.80
2023-03-29T22:30:10.703Z,13.80
2023-03-29T22:32:38.766Z,13.80
2023-03-29T22:35:09.489Z,13.80
2023-03-29T22:37:41.478Z,13.80
2023-03-29T22:40:10.857Z,13.80
2023-03-29T22:42:38.838Z,13.90
2023-03-29T22:45:08.119Z,13.80
2023-03-29T22:47:36.439Z,13.90
2023-03-29T22:50:04.942Z,13.80
2023-03-29T22:52:34.726Z,13.80
2023-03-29T22:55:02.752Z,13.90
2023-03-29T22:57:30.724Z,13.80
2023-03-29T22:59:58.711Z,13.80
2023-03-29T23:02:29.513Z,13.80
2023-03-29T23:04:57.553Z,13.80
2023-03-29T23:07:25.668Z,13.90
2023-03-29T23:09:55.068Z,13.90
2023-03-29T23:12:24.195Z,13.80
2023-03-29T23:14:53.141Z,13.90
2023-03-29T23:17:21.173Z,13.80
2023-03-29T23:19:49.179Z,13.90
2023-03-29T23:22:17.192Z,13.90
2023-03-29T23:24:47.435Z,13.80
2023-03-29T23:27:17.392Z,13.80
2023-03-29T23:29:45.813Z,13.80
2023-03-29T23:32:14.161Z,13.80
2023-03-29T23:34:42.414Z,13.90
2023-03-29T23:37:10.693Z,13.80
2023-03-29T23:39:38.707Z,13.80
2023-03-29T23:42:06.865Z,13.80
2023-03-29T23:44:36.500Z,13.80
2023-03-29T23:47:04.590Z,13.80
2023-03-29T23:49:32.809Z,13.80
2023-03-29T23:52:02.660Z,13.80
2023-03-29T23:54:31.546Z,13.70
2023-03-29T23:57:02.320Z,13.70
2023-03-29T23:59:31.142Z,13.70
